sensor_id;sensor_type;location;lat;lon;timestamp;pressure;altitude;pressure_sealevel;temperature;humidity
42847;BME280;28495;49.916;14.536;2023-05-02T00:00:38;96704.19;;;13.44;56.41
42847;BME280;28495;49.916;14.536;2023-05-02T00:05:59;96700.53;;;13.37;56.46
42847;BME280;28495;49.916;14.536;2023-05-02T00:11:20;96713.25;;;13.23;56.70
42847;BME280;28495;49.916;14.536;2023-05-02T00:16:42;96710.75;;;13.14;56.80
42847;BME280;28495;49.916;14.536;2023-05-02T00:22:03;96710.09;;;13.11;56.96
42847;BME280;28495;49.916;14.536;2023-05-02T00:27:24;96708.63;;;13.09;57.02
42847;BME280;28495;49.916;14.536;2023-05-02T00:32:44;96717.63;;;13.06;57.15
42847;BME280;28495;49.916;14.536;2023-05-02T00:38:06;96715.81;;;13.07;57.22
42847;BME280;28495;49.916;14.536;2023-05-02T00:43:29;96712.03;;;13.01;57.22
42847;BME280;28495;49.916;14.536;2023-05-02T00:48:50;96715.94;;;12.97;57.42
42847;BME280;28495;49.916;14.536;2023-05-02T00:54:13;96711.16;;;12.92;57.64
42847;BME280;28495;49.916;14.536;2023-05-02T00:59:34;96711.28;;;12.83;58.04
42847;BME280;28495;49.916;14.536;2023-05-02T01:05:14;96712.72;;;12.77;57.66
42847;BME280;28495;49.916;14.536;2023-05-02T01:16:06;96720.28;;;12.80;58.08
42847;BME280;28495;49.916;14.536;2023-05-02T01:21:32;96725.69;;;12.87;58.17
42847;BME280;28495;49.916;14.536;2023-05-02T01:32:39;96740.81;;;12.67;58.07
42847;BME280;28495;49.916;14.536;2023-05-02T01:38:02;96740.81;;;12.48;57.78
42847;BME280;28495;49.916;14.536;2023-05-02T01:43:24;96740.81;;;12.48;58.16
42847;BME280;28495;49.916;14.536;2023-05-02T01:48:47;96739.72;;;12.51;58.31
42847;BME280;28495;49.916;14.536;2023-05-02T01:54:12;96748.84;;;12.47;58.19
42847;BME280;28495;49.916;14.536;2023-05-02T01:59:34;96750.84;;;12.53;58.23
42847;BME280;28495;49.916;14.536;2023-05-02T02:04:56;96760.44;;;12.44;58.21
42847;BME280;28495;49.916;14.536;2023-05-02T02:10:19;96757.97;;;12.43;58.42
42847;BME280;28495;49.916;14.536;2023-05-02T02:15:42;96765.28;;;12.39;58.44
42847;BME280;28495;49.916;14.536;2023-05-02T02:21:08;96767.53;;;12.34;58.46
42847;BME280;28495;49.916;14.536;2023-05-02T02:26:30;96767.31;;;12.27;58.55
42847;BME280;28495;49.916;14.536;2023-05-02T02:31:51;96772.50;;;12.19;58.73
42847;BME280;28495;49.916;14.536;2023-05-02T02:37:18;96770.84;;;12.00;58.66
42847;BME280;28495;49.916;14.536;2023-05-02T02:48:38;96789.03;;;11.92;59.02
42847;BME280;28495;49.916;14.536;2023-05-02T02:54:13;96789.19;;;11.90;59.10
42847;BME280;28495;49.916;14.536;2023-05-02T02:59:56;96800.66;;;11.97;59.26
42847;BME280;28495;49.916;14.536;2023-05-02T03:05:18;96798.50;;;11.93;59.03
42847;BME280;28495;49.916;14.536;2023-05-02T03:10:39;96799.72;;;11.98;59.58
42847;BME280;28495;49.916;14.536;2023-05-02T03:16:30;96801.38;;;11.99;59.51
42847;BME280;28495;49.916;14.536;2023-05-02T03:21:53;96807.84;;;11.95;59.37
42847;BME280;28495;49.916;14.536;2023-05-02T03:27:13;96801.97;;;11.93;59.47
42847;BME280;28495;49.916;14.536;2023-05-02T03:32:35;96806.47;;;12.01;59.72
42847;BME280;28495;49.916;14.536;2023-05-02T03:37:56;96814.84;;;12.04;59.42
42847;BME280;28495;49.916;14.536;2023-05-02T03:43:16;96809.75;;;12.03;59.56
42847;BME280;28495;49.916;14.536;2023-05-02T03:48:38;96818.25;;;12.05;59.66
42847;BME280;28495;49.916;14.536;2023-05-02T03:54:00;96827.66;;;11.98;59.60
42847;BME280;28495;49.916;14.536;2023-05-02T03:59:22;96820.81;;;11.87;59.77
42847;BME280;28495;49.916;14.536;2023-05-02T04:04:45;96830.88;;;11.82;59.98
42847;BME280;28495;49.916;14.536;2023-05-02T04:10:09;96841.66;;;11.79;59.91
42847;BME280;28495;49.916;14.536;2023-05-02T04:15:41;96844.25;;;11.79;60.11
42847;BME280;28495;49.916;14.536;2023-05-02T04:21:01;96844.09;;;11.80;60.23
42847;BME280;28495;49.916;14.536;2023-05-02T04:26:23;96852.84;;;11.71;60.12
42847;BME280;28495;49.916;14.536;2023-05-02T04:31:51;96861.91;;;11.67;60.34
42847;BME280;28495;49.916;14.536;2023-05-02T04:37:15;96870.41;;;11.79;60.50
42847;BME280;28495;49.916;14.536;2023-05-02T04:48:56;96886.31;;;11.85;60.58
42847;BME280;28495;49.916;14.536;2023-05-02T04:54:17;96897.03;;;11.82;60.81
42847;BME280;28495;49.916;14.536;2023-05-02T04:59:40;96895.47;;;11.89;60.59
42847;BME280;28495;49.916;14.536;2023-05-02T05:05:01;96896.16;;;11.92;60.82
42847;BME280;28495;49.916;14.536;2023-05-02T05:10:23;96904.28;;;11.98;60.76
42847;BME280;28495;49.916;14.536;2023-05-02T05:15:44;96919.13;;;11.98;60.91
42847;BME280;28495;49.916;14.536;2023-05-02T05:21:09;96919.97;;;11.98;61.04
42847;BME280;28495;49.916;14.536;2023-05-02T05:26:31;96938.09;;;12.10;61.15
42847;BME280;28495;49.916;14.536;2023-05-02T05:31:52;96937.69;;;12.04;61.00
42847;BME280;28495;49.916;14.536;2023-05-02T05:37:14;96942.72;;;12.16;61.10
42847;BME280;28495;49.916;14.536;2023-05-02T05:42:35;96950.84;;;12.13;61.31
42847;BME280;28495;49.916;14.536;2023-05-02T05:48:03;96942.19;;;12.12;61.31
42847;BME280;28495;49.916;14.536;2023-05-02T05:53:30;96942.06;;;12.04;61.30
42847;BME280;28495;49.916;14.536;2023-05-02T05:58:52;96957.88;;;12.12;61.73
42847;BME280;28495;49.916;14.536;2023-05-02T06:04:14;96957.84;;;12.40;61.66
42847;BME280;28495;49.916;14.536;2023-05-02T06:09:39;96977.69;;;12.33;61.25
42847;BME280;28495;49.916;14.536;2023-05-02T06:15:01;96977.09;;;12.21;61.28
42847;BME280;28495;49.916;14.536;2023-05-02T06:20:22;96975.72;;;12.17;61.47
42847;BME280;28495;49.916;14.536;2023-05-02T06:25:43;96982.44;;;12.19;61.48
42847;BME280;28495;49.916;14.536;2023-05-02T06:31:04;96986.34;;;12.15;61.54
42847;BME280;28495;49.916;14.536;2023-05-02T06:36:25;96996.94;;;12.14;61.37
42847;BME280;28495;49.916;14.536;2023-05-02T06:41:47;96997.19;;;12.20;61.63
42847;BME280;28495;49.916;14.536;2023-05-02T06:47:10;97000.03;;;12.27;61.94
42847;BME280;28495;49.916;14.536;2023-05-02T06:52:31;97016.56;;;12.28;61.64
42847;BME280;28495;49.916;14.536;2023-05-02T06:57:53;97027.38;;;12.33;61.86
42847;BME280;28495;49.916;14.536;2023-05-02T07:03:14;97027.34;;;12.43;61.93
42847;BME280;28495;49.916;14.536;2023-05-02T07:08:35;97030.13;;;12.41;61.83
42847;BME280;28495;49.916;14.536;2023-05-02T07:13:56;97031.53;;;12.35;61.40
42847;BME280;28495;49.916;14.536;2023-05-02T07:19:17;97029.47;;;12.29;61.56
42847;BME280;28495;49.916;14.536;2023-05-02T07:24:42;97037.50;;;12.18;61.95
42847;BME280;28495;49.916;14.536;2023-05-02T07:30:04;97033.41;;;12.15;61.59
42847;BME280;28495;49.916;14.536;2023-05-02T07:35:25;97040.13;;;12.18;61.90
42847;BME280;28495;49.916;14.536;2023-05-02T07:40:46;97042.34;;;12.41;62.14
42847;BME280;28495;49.916;14.536;2023-05-02T07:46:07;97039.38;;;12.63;62.17
42847;BME280;28495;49.916;14.536;2023-05-02T07:51:28;97048.38;;;12.97;62.19
42847;BME280;28495;49.916;14.536;2023-05-02T07:56:49;97045.41;;;13.10;61.92
42847;BME280;28495;49.916;14.536;2023-05-02T08:02:10;97058.56;;;13.18;61.48
42847;BME280;28495;49.916;14.536;2023-05-02T08:07:33;97064.41;;;13.30;61.26
42847;BME280;28495;49.916;14.536;2023-05-02T08:12:57;97065.25;;;13.31;61.50
42847;BME280;28495;49.916;14.536;2023-05-02T08:18:18;97061.78;;;13.30;61.10
42847;BME280;28495;49.916;14.536;2023-05-02T08:23:40;97071.31;;;13.49;61.17
42847;BME280;28495;49.916;14.536;2023-05-02T08:29:01;97071.91;;;13.61;60.98
42847;BME280;28495;49.916;14.536;2023-05-02T08:34:24;97077.19;;;13.69;60.73
42847;BME280;28495;49.916;14.536;2023-05-02T08:39:45;97082.03;;;13.82;60.86
42847;BME280;28495;49.916;14.536;2023-05-02T08:45:07;97088.44;;;14.06;60.28
42847;BME280;28495;49.916;14.536;2023-05-02T08:50:29;97096.16;;;14.34;60.53
42847;BME280;28495;49.916;14.536;2023-05-02T08:55:50;97092.75;;;14.50;59.70
42847;BME280;28495;49.916;14.536;2023-05-02T09:01:17;97108.47;;;14.42;59.26
42847;BME280;28495;49.916;14.536;2023-05-02T09:06:39;97114.81;;;14.31;59.64
42847;BME280;28495;49.916;14.536;2023-05-02T09:12:00;97116.78;;;14.37;59.59
42847;BME280;28495;49.916;14.536;2023-05-02T09:17:22;97121.13;;;14.46;59.44
42847;BME280;28495;49.916;14.536;2023-05-02T09:22:48;97132.63;;;14.54;59.61
42847;BME280;28495;49.916;14.536;2023-05-02T09:28:10;97134.69;;;14.68;59.52
42847;BME280;28495;49.916;14.536;2023-05-02T09:33:30;97146.66;;;14.97;59.58
42847;BME280;28495;49.916;14.536;2023-05-02T09:39:08;97143.06;;;15.06;59.20
42847;BME280;28495;49.916;14.536;2023-05-02T09:44:36;97144.72;;;15.07;58.67
42847;BME280;28495;49.916;14.536;2023-05-02T09:49:57;97155.59;;;15.21;58.76
42847;BME280;28495;49.916;14.536;2023-05-02T09:55:21;97151.97;;;15.22;57.67
42847;BME280;28495;49.916;14.536;2023-05-02T10:00:43;97159.69;;;15.23;57.83
42847;BME280;28495;49.916;14.536;2023-05-02T10:06:07;97159.41;;;15.35;57.99
42847;BME280;28495;49.916;14.536;2023-05-02T10:11:29;97154.34;;;15.42;57.90
42847;BME280;28495;49.916;14.536;2023-05-02T10:22:29;97164.00;;;15.41;57.30
42847;BME280;28495;49.916;14.536;2023-05-02T10:27:51;97167.81;;;15.55;57.78
42847;BME280;28495;49.916;14.536;2023-05-02T10:33:13;97164.88;;;15.66;57.38
42847;BME280;28495;49.916;14.536;2023-05-02T10:38:37;97165.22;;;15.72;56.92
42847;BME280;28495;49.916;14.536;2023-05-02T10:43:59;97170.78;;;15.68;57.19
42847;BME280;28495;49.916;14.536;2023-05-02T10:49:21;97168.47;;;15.74;57.34
42847;BME280;28495;49.916;14.536;2023-05-02T10:54:47;97173.28;;;15.78;57.44
42847;BME280;28495;49.916;14.536;2023-05-02T11:00:20;97165.72;;;15.75;57.01
42847;BME280;28495;49.916;14.536;2023-05-02T11:06:04;97168.66;;;15.72;57.23
42847;BME280;28495;49.916;14.536;2023-05-02T11:11:40;97169.97;;;15.68;57.26
42847;BME280;28495;49.916;14.536;2023-05-02T11:22:33;97165.44;;;15.95;57.07
42847;BME280;28495;49.916;14.536;2023-05-02T11:27:54;97171.97;;;15.99;56.37
42847;BME280;28495;49.916;14.536;2023-05-02T11:33:17;97163.94;;;16.00;55.99
42847;BME280;28495;49.916;14.536;2023-05-02T11:38:38;97162.59;;;16.05;55.58
42847;BME280;28495;49.916;14.536;2023-05-02T11:44:02;97165.41;;;16.20;55.81
42847;BME280;28495;49.916;14.536;2023-05-02T11:49:23;97171.47;;;16.20;55.48
42847;BME280;28495;49.916;14.536;2023-05-02T11:54:45;97178.06;;;16.24;55.75
42847;BME280;28495;49.916;14.536;2023-05-02T12:00:07;97171.97;;;16.32;55.30
42847;BME280;28495;49.916;14.536;2023-05-02T12:05:28;97182.31;;;16.42;55.57
42847;BME280;28495;49.916;14.536;2023-05-02T12:10:50;97185.75;;;16.42;54.98
42847;BME280;28495;49.916;14.536;2023-05-02T12:16:12;97180.97;;;16.54;55.20
42847;BME280;28495;49.916;14.536;2023-05-02T12:21:33;97182.63;;;16.55;54.84
42847;BME280;28495;49.916;14.536;2023-05-02T12:27:13;97191.53;;;16.38;54.49
42847;BME280;28495;49.916;14.536;2023-05-02T12:32:35;97198.47;;;15.97;54.55
42847;BME280;28495;49.916;14.536;2023-05-02T12:38:10;97196.28;;;15.84;55.34
42847;BME280;28495;49.916;14.536;2023-05-02T12:43:45;97198.91;;;15.76;55.57
42847;BME280;28495;49.916;14.536;2023-05-02T12:49:08;97202.69;;;15.82;55.99
42847;BME280;28495;49.916;14.536;2023-05-02T12:54:29;97203.00;;;15.70;55.93
42847;BME280;28495;49.916;14.536;2023-05-02T12:59:53;97210.06;;;15.62;56.06
42847;BME280;28495;49.916;14.536;2023-05-02T13:05:15;97214.78;;;15.50;55.96
42847;BME280;28495;49.916;14.536;2023-05-02T13:10:37;97220.00;;;15.33;55.89
42847;BME280;28495;49.916;14.536;2023-05-02T13:15:59;97229.03;;;15.31;55.99
42847;BME280;28495;49.916;14.536;2023-05-02T13:21:20;97229.50;;;15.26;56.11
42847;BME280;28495;49.916;14.536;2023-05-02T13:26:41;97222.47;;;15.35;56.54
42847;BME280;28495;49.916;14.536;2023-05-02T13:32:02;97224.75;;;15.38;56.19
42847;BME280;28495;49.916;14.536;2023-05-02T13:37:23;97219.25;;;15.49;56.74
42847;BME280;28495;49.916;14.536;2023-05-02T13:42:44;97222.69;;;15.58;56.31
42847;BME280;28495;49.916;14.536;2023-05-02T13:48:05;97229.44;;;15.61;56.27
42847;BME280;28495;49.916;14.536;2023-05-02T13:53:26;97231.41;;;15.67;56.35
42847;BME280;28495;49.916;14.536;2023-05-02T13:58:47;97224.19;;;15.69;56.02
42847;BME280;28495;49.916;14.536;2023-05-02T14:04:08;97222.09;;;15.73;55.89
42847;BME280;28495;49.916;14.536;2023-05-02T14:09:29;97238.81;;;15.63;55.69
42847;BME280;28495;49.916;14.536;2023-05-02T14:14:50;97237.66;;;15.58;55.74
42847;BME280;28495;49.916;14.536;2023-05-02T14:20:12;97244.19;;;15.53;55.85
42847;BME280;28495;49.916;14.536;2023-05-02T14:25:33;97251.94;;;15.55;56.06
42847;BME280;28495;49.916;14.536;2023-05-02T14:30:54;97242.09;;;15.65;55.89
42847;BME280;28495;49.916;14.536;2023-05-02T14:36:15;97254.59;;;15.63;55.86
42847;BME280;28495;49.916;14.536;2023-05-02T14:41:36;97264.59;;;15.68;55.82
42847;BME280;28495;49.916;14.536;2023-05-02T14:46:57;97255.44;;;15.72;55.95
42847;BME280;28495;49.916;14.536;2023-05-02T14:52:18;97264.28;;;15.71;55.52
42847;BME280;28495;49.916;14.536;2023-05-02T14:57:40;97265.47;;;15.77;55.83
42847;BME280;28495;49.916;14.536;2023-05-02T15:03:03;97267.41;;;15.75;55.30
42847;BME280;28495;49.916;14.536;2023-05-02T15:08:27;97273.66;;;15.74;55.74
42847;BME280;28495;49.916;14.536;2023-05-02T15:13:48;97276.63;;;15.70;55.80
42847;BME280;28495;49.916;14.536;2023-05-02T15:19:09;97279.09;;;15.72;55.51
42847;BME280;28495;49.916;14.536;2023-05-02T15:24:31;97284.34;;;15.72;55.24
42847;BME280;28495;49.916;14.536;2023-05-02T15:29:52;97287.09;;;15.62;55.29
42847;BME280;28495;49.916;14.536;2023-05-02T15:35:14;97292.69;;;15.59;55.20
42847;BME280;28495;49.916;14.536;2023-05-02T15:40:35;97296.16;;;15.60;55.15
42847;BME280;28495;49.916;14.536;2023-05-02T15:45:58;97300.38;;;15.52;55.24
42847;BME280;28495;49.916;14.536;2023-05-02T15:51:19;97313.03;;;15.49;55.13
42847;BME280;28495;49.916;14.536;2023-05-02T15:56:40;97313.59;;;15.26;55.55
42847;BME280;28495;49.916;14.536;2023-05-02T16:02:01;97320.19;;;15.04;55.96
42847;BME280;28495;49.916;14.536;2023-05-02T16:07:23;97318.47;;;14.94;56.45
42847;BME280;28495;49.916;14.536;2023-05-02T16:12:44;97321.19;;;15.03;56.65
42847;BME280;28495;49.916;14.536;2023-05-02T16:18:04;97320.50;;;15.01;56.54
42847;BME280;28495;49.916;14.536;2023-05-02T16:23:28;97325.28;;;15.05;56.82
42847;BME280;28495;49.916;14.536;2023-05-02T16:28:49;97329.28;;;14.91;56.92
42847;BME280;28495;49.916;14.536;2023-05-02T16:34:10;97327.44;;;14.84;56.89
42847;BME280;28495;49.916;14.536;2023-05-02T16:39:32;97327.00;;;14.88;57.24
42847;BME280;28495;49.916;14.536;2023-05-02T16:44:55;97324.66;;;14.85;57.18
42847;BME280;28495;49.916;14.536;2023-05-02T16:50:16;97325.88;;;14.99;57.46
42847;BME280;28495;49.916;14.536;2023-05-02T16:55:37;97324.31;;;15.06;57.55
42847;BME280;28495;49.916;14.536;2023-05-02T17:00:58;97331.97;;;15.00;57.29
42847;BME280;28495;49.916;14.536;2023-05-02T17:06:20;97339.03;;;14.99;57.59
42847;BME280;28495;49.916;14.536;2023-05-02T17:11:43;97333.94;;;14.98;57.64
42847;BME280;28495;49.916;14.536;2023-05-02T17:17:04;97344.03;;;15.11;57.68
42847;BME280;28495;49.916;14.536;2023-05-02T17:22:25;97344.91;;;15.19;57.94
42847;BME280;28495;49.916;14.536;2023-05-02T17:27:46;97358.34;;;15.16;57.83
42847;BME280;28495;49.916;14.536;2023-05-02T17:33:07;97361.28;;;15.13;57.80
42847;BME280;28495;49.916;14.536;2023-05-02T17:38:29;97370.91;;;15.04;58.02
42847;BME280;28495;49.916;14.536;2023-05-02T17:43:50;97367.00;;;15.08;58.26
42847;BME280;28495;49.916;14.536;2023-05-02T17:49:11;97381.22;;;14.98;58.10
42847;BME280;28495;49.916;14.536;2023-05-02T17:54:32;97389.69;;;14.91;57.93
42847;BME280;28495;49.916;14.536;2023-05-02T17:59:53;97385.34;;;14.82;58.24
42847;BME280;28495;49.916;14.536;2023-05-02T18:05:19;97390.28;;;14.67;58.01
42847;BME280;28495;49.916;14.536;2023-05-02T18:10:42;97396.06;;;14.53;58.22
42847;BME280;28495;49.916;14.536;2023-05-02T18:16:03;97399.75;;;14.42;58.51
42847;BME280;28495;49.916;14.536;2023-05-02T18:21:24;97411.50;;;14.38;58.73
42847;BME280;28495;49.916;14.536;2023-05-02T18:26:47;97419.22;;;14.39;58.72
42847;BME280;28495;49.916;14.536;2023-05-02T18:32:09;97421.16;;;14.37;59.14
42847;BME280;28495;49.916;14.536;2023-05-02T18:37:30;97420.19;;;14.38;59.12
42847;BME280;28495;49.916;14.536;2023-05-02T18:42:51;97435.13;;;14.38;59.11
42847;BME280;28495;49.916;14.536;2023-05-02T18:48:12;97437.44;;;14.41;59.05
42847;BME280;28495;49.916;14.536;2023-05-02T18:53:34;97438.78;;;14.27;59.05
42847;BME280;28495;49.916;14.536;2023-05-02T18:58:54;97452.38;;;14.12;58.86
42847;BME280;28495;49.916;14.536;2023-05-02T19:04:16;97452.16;;;13.96;58.94
42847;BME280;28495;49.916;14.536;2023-05-02T19:09:38;97460.91;;;13.86;58.95
42847;BME280;28495;49.916;14.536;2023-05-02T19:15:00;97468.13;;;13.75;58.89
42847;BME280;28495;49.916;14.536;2023-05-02T19:20:21;97474.94;;;13.67;58.79
42847;BME280;28495;49.916;14.536;2023-05-02T19:25:43;97471.94;;;13.43;58.98
42847;BME280;28495;49.916;14.536;2023-05-02T19:31:11;97491.22;;;13.32;59.11
42847;BME280;28495;49.916;14.536;2023-05-02T19:36:32;97502.38;;;13.24;59.11
42847;BME280;28495;49.916;14.536;2023-05-02T19:41:53;97531.22;;;13.04;59.05
42847;BME280;28495;49.916;14.536;2023-05-02T19:47:14;97536.28;;;12.86;59.43
42847;BME280;28495;49.916;14.536;2023-05-02T19:52:35;97536.53;;;12.63;59.48
42847;BME280;28495;49.916;14.536;2023-05-02T19:57:58;97549.06;;;12.60;59.86
42847;BME280;28495;49.916;14.536;2023-05-02T20:03:24;97545.47;;;12.61;60.07
42847;BME280;28495;49.916;14.536;2023-05-02T20:08:45;97551.50;;;12.52;59.84
42847;BME280;28495;49.916;14.536;2023-05-02T20:14:06;97552.81;;;12.36;59.82
42847;BME280;28495;49.916;14.536;2023-05-02T20:19:27;97557.75;;;12.29;59.94
42847;BME280;28495;49.916;14.536;2023-05-02T20:24:51;97567.50;;;12.27;60.21
42847;BME280;28495;49.916;14.536;2023-05-02T20:30:12;97563.63;;;12.22;60.18
42847;BME280;28495;49.916;14.536;2023-05-02T20:35:34;97560.59;;;12.16;60.77
42847;BME280;28495;49.916;14.536;2023-05-02T20:40:55;97567.59;;;12.16;60.77
42847;BME280;28495;49.916;14.536;2023-05-02T20:46:17;97576.59;;;12.23;61.06
42847;BME280;28495;49.916;14.536;2023-05-02T20:51:39;97582.13;;;12.30;61.18
42847;BME280;28495;49.916;14.536;2023-05-02T20:57:00;97578.81;;;12.28;61.17
42847;BME280;28495;49.916;14.536;2023-05-02T21:02:23;97582.47;;;12.15;61.04
42847;BME280;28495;49.916;14.536;2023-05-02T21:07:44;97577.31;;;12.04;61.00
42847;BME280;28495;49.916;14.536;2023-05-02T21:13:06;97585.66;;;11.98;61.15
42847;BME280;28495;49.916;14.536;2023-05-02T21:18:26;97585.28;;;12.02;61.25
42847;BME280;28495;49.916;14.536;2023-05-02T21:23:47;97594.22;;;12.00;61.10
42847;BME280;28495;49.916;14.536;2023-05-02T21:29:08;97597.44;;;11.92;61.08
42847;BME280;28495;49.916;14.536;2023-05-02T21:34:30;97601.25;;;11.88;61.27
42847;BME280;28495;49.916;14.536;2023-05-02T21:39:51;97613.06;;;11.82;61.02
42847;BME280;28495;49.916;14.536;2023-05-02T21:45:13;97600.38;;;11.78;61.24
42847;BME280;28495;49.916;14.536;2023-05-02T21:50:34;97613.06;;;11.61;61.33
42847;BME280;28495;49.916;14.536;2023-05-02T21:55:56;97622.47;;;11.52;61.13
42847;BME280;28495;49.916;14.536;2023-05-02T22:01:17;97629.13;;;11.45;61.72
42847;BME280;28495;49.916;14.536;2023-05-02T22:06:38;97632.06;;;11.52;61.69
42847;BME280;28495;49.916;14.536;2023-05-02T22:11:59;97635.28;;;11.55;61.79
42847;BME280;28495;49.916;14.536;2023-05-02T22:17:19;97639.81;;;11.42;61.61
42847;BME280;28495;49.916;14.536;2023-05-02T22:22:42;97639.56;;;11.45;61.92
42847;BME280;28495;49.916;14.536;2023-05-02T22:28:05;97636.84;;;11.47;61.82
42847;BME280;28495;49.916;14.536;2023-05-02T22:33:26;97635.91;;;11.48;61.93
42847;BME280;28495;49.916;14.536;2023-05-02T22:38:47;97624.84;;;11.44;61.78
42847;BME280;28495;49.916;14.536;2023-05-02T22:44:08;97635.69;;;11.39;61.80
42847;BME280;28495;49.916;14.536;2023-05-02T22:49:29;97640.38;;;11.24;61.89
42847;BME280;28495;49.916;14.536;2023-05-02T22:54:52;97635.16;;;11.24;61.97
42847;BME280;28495;49.916;14.536;2023-05-02T23:00:13;97637.50;;;11.27;62.21
42847;BME280;28495;49.916;14.536;2023-05-02T23:05:35;97637.75;;;11.13;61.79
42847;BME280;28495;49.916;14.536;2023-05-02T23:10:55;97643.97;;;11.01;61.59
42847;BME280;28495;49.916;14.536;2023-05-02T23:16:16;97653.47;;;11.02;61.72
42847;BME280;28495;49.916;14.536;2023-05-02T23:21:37;97655.50;;;10.87;61.47
42847;BME280;28495;49.916;14.536;2023-05-02T23:26:58;97651.47;;;10.71;61.14
42847;BME280;28495;49.916;14.536;2023-05-02T23:32:19;97649.13;;;10.57;61.50
42847;BME280;28495;49.916;14.536;2023-05-02T23:37:43;97644.72;;;10.46;61.20
42847;BME280;28495;49.916;14.536;2023-05-02T23:43:04;97647.28;;;10.34;61.76
42847;BME280;28495;49.916;14.536;2023-05-02T23:48:27;97660.06;;;10.26;61.38
42847;BME280;28495;49.916;14.536;2023-05-02T23:53:47;97655.22;;;10.21;61.60
42847;BME280;28495;49.916;14.536;2023-05-02T23:59:09;97671.88;;;10.07;61.26
